Terminal Aerodrome Forecast
Issued by NWS

Current Version | Previous Version | Text Only | Print | Product List | Glossary Off
Versions: 1 2 3 4 5 6 7 8 9 10 11 12 13 14 15 16 17 18 19 20 21 22 23 24 25 26 27 28 29 30 31 32 33 34 35 36 37 38 39 40 41 42 43 44 45 46 47 48 49 50

000
FTUS41 KRNK 201931 AAA
TAFLWB
TAF AMD
KLWB 201931Z 2020/2118 00000KT P6SM VCSH OVC020
     FM210200 00000KT P6SM -SHRA OVC025
     FM210800 13003KT 3SM BR OVC015
     FM211000 00000KT 1/2SM FG BKN004
     FM211400 VRB03KT 5SM BR SCT007 BKN015
     FM211600 11003KT P6SM BKN025=

USA.gov is the U.S. government's official web portal to all federal, state and local government web resources and services.